sensor_id;sensor_type;location;lat;lon;timestamp;temperature;humidity
36132;DHT22;22185;48.738;9.324;2023-02-28T00:00:23;-0.50;99.90
36132;DHT22;22185;48.738;9.324;2023-02-28T00:02:24;-0.50;99.90
36132;DHT22;22185;48.738;9.324;2023-02-28T00:04:26;-0.50;99.90
36132;DHT22;22185;48.738;9.324;2023-02-28T00:06:28;-0.60;99.90
36132;DHT22;22185;48.738;9.324;2023-02-28T00:08:30;-0.50;99.90
36132;DHT22;22185;48.738;9.324;2023-02-28T00:10:31;-0.50;99.90
36132;DHT22;22185;48.738;9.324;2023-02-28T00:12:33;-0.60;99.90
36132;DHT22;22185;48.738;9.324;2023-02-28T00:14:38;-0.50;99.90
36132;DHT22;22185;48.738;9.324;2023-02-28T00:16:39;-0.60;99.90
36132;DHT22;22185;48.738;9.324;2023-02-28T00:18:41;-0.60;99.90
36132;DHT22;22185;48.738;9.324;2023-02-28T00:20:43;-0.70;99.90
36132;DHT22;22185;48.738;9.324;2023-02-28T00:22:45;-0.70;99.90
36132;DHT22;22185;48.738;9.324;2023-02-28T00:24:47;-0.70;99.90
36132;DHT22;22185;48.738;9.324;2023-02-28T00:26:49;-0.70;99.90
36132;DHT22;22185;48.738;9.324;2023-02-28T00:28:51;-0.80;99.90
36132;DHT22;22185;48.738;9.324;2023-02-28T00:30:54;-0.70;99.90
36132;DHT22;22185;48.738;9.324;2023-02-28T00:32:55;-0.70;99.90
36132;DHT22;22185;48.738;9.324;2023-02-28T00:34:57;-0.80;99.90
36132;DHT22;22185;48.738;9.324;2023-02-28T00:36:58;-0.90;99.90
36132;DHT22;22185;48.738;9.324;2023-02-28T00:39:00;-0.90;99.90
36132;DHT22;22185;48.738;9.324;2023-02-28T00:41:02;-0.70;99.90
36132;DHT22;22185;48.738;9.324;2023-02-28T00:43:06;-0.80;99.90
36132;DHT22;22185;48.738;9.324;2023-02-28T00:45:08;-0.80;99.90
36132;DHT22;22185;48.738;9.324;2023-02-28T00:47:10;-0.70;99.90
36132;DHT22;22185;48.738;9.324;2023-02-28T00:49:12;-0.70;99.90
36132;DHT22;22185;48.738;9.324;2023-02-28T00:51:13;-0.80;99.90
36132;DHT22;22185;48.738;9.324;2023-02-28T00:53:15;-0.80;99.90
36132;DHT22;22185;48.738;9.324;2023-02-28T00:55:17;-0.80;99.90
36132;DHT22;22185;48.738;9.324;2023-02-28T00:57:20;-0.80;99.90
36132;DHT22;22185;48.738;9.324;2023-02-28T00:59:21;-0.70;99.90
36132;DHT22;22185;48.738;9.324;2023-02-28T01:01:23;-0.70;99.90
36132;DHT22;22185;48.738;9.324;2023-02-28T01:03:25;-0.70;99.90
36132;DHT22;22185;48.738;9.324;2023-02-28T01:05:26;-0.60;99.90
36132;DHT22;22185;48.738;9.324;2023-02-28T01:07:28;-0.70;99.90
36132;DHT22;22185;48.738;9.324;2023-02-28T01:09:30;-0.70;99.90
36132;DHT22;22185;48.738;9.324;2023-02-28T01:11:31;-0.60;99.90
36132;DHT22;22185;48.738;9.324;2023-02-28T01:13:33;-0.50;99.90
36132;DHT22;22185;48.738;9.324;2023-02-28T01:15:35;-0.60;99.90
36132;DHT22;22185;48.738;9.324;2023-02-28T01:17:36;-0.70;99.90
36132;DHT22;22185;48.738;9.324;2023-02-28T01:19:38;-0.70;99.90
36132;DHT22;22185;48.738;9.324;2023-02-28T01:21:40;-0.70;99.90
36132;DHT22;22185;48.738;9.324;2023-02-28T01:23:43;-0.70;99.90
36132;DHT22;22185;48.738;9.324;2023-02-28T01:25:45;-0.70;99.90
36132;DHT22;22185;48.738;9.324;2023-02-28T01:27:46;-0.70;99.90
36132;DHT22;22185;48.738;9.324;2023-02-28T01:29:48;-0.60;99.90
36132;DHT22;22185;48.738;9.324;2023-02-28T01:31:50;-0.60;99.90
36132;DHT22;22185;48.738;9.324;2023-02-28T01:33:52;-0.70;99.90
36132;DHT22;22185;48.738;9.324;2023-02-28T01:35:57;-0.60;99.90
36132;DHT22;22185;48.738;9.324;2023-02-28T01:37:59;-0.70;99.90
36132;DHT22;22185;48.738;9.324;2023-02-28T01:40:16;-0.70;99.90
36132;DHT22;22185;48.738;9.324;2023-02-28T01:42:17;-0.70;99.90
36132;DHT22;22185;48.738;9.324;2023-02-28T01:46:40;-0.80;99.90
36132;DHT22;22185;48.738;9.324;2023-02-28T01:48:42;-0.60;99.90
36132;DHT22;22185;48.738;9.324;2023-02-28T01:50:45;-0.70;99.90
36132;DHT22;22185;48.738;9.324;2023-02-28T01:52:49;-0.70;99.90
36132;DHT22;22185;48.738;9.324;2023-02-28T01:54:52;-0.70;99.90
36132;DHT22;22185;48.738;9.324;2023-02-28T01:57:03;-0.70;99.90
36132;DHT22;22185;48.738;9.324;2023-02-28T01:59:05;-0.70;99.90
36132;DHT22;22185;48.738;9.324;2023-02-28T02:01:07;-0.70;99.90
36132;DHT22;22185;48.738;9.324;2023-02-28T02:03:09;-0.70;99.90
36132;DHT22;22185;48.738;9.324;2023-02-28T02:05:14;-0.70;99.90
36132;DHT22;22185;48.738;9.324;2023-02-28T02:07:16;-0.70;99.90
36132;DHT22;22185;48.738;9.324;2023-02-28T02:09:17;-0.70;99.90
36132;DHT22;22185;48.738;9.324;2023-02-28T02:11:19;-0.60;99.90
36132;DHT22;22185;48.738;9.324;2023-02-28T02:17:33;-0.60;99.90
36132;DHT22;22185;48.738;9.324;2023-02-28T02:22:05;-0.60;99.90
36132;DHT22;22185;48.738;9.324;2023-02-28T02:26:20;-0.70;99.90
36132;DHT22;22185;48.738;9.324;2023-02-28T02:28:51;-0.60;99.90
36132;DHT22;22185;48.738;9.324;2023-02-28T02:31:01;-0.60;99.90
36132;DHT22;22185;48.738;9.324;2023-02-28T02:35:11;-0.60;99.90
36132;DHT22;22185;48.738;9.324;2023-02-28T02:39:19;-0.50;99.90
36132;DHT22;22185;48.738;9.324;2023-02-28T02:43:32;-0.50;99.90
36132;DHT22;22185;48.738;9.324;2023-02-28T02:45:43;-0.50;99.90
36132;DHT22;22185;48.738;9.324;2023-02-28T02:47:46;-0.50;99.90
36132;DHT22;22185;48.738;9.324;2023-02-28T02:49:49;-0.50;99.90
36132;DHT22;22185;48.738;9.324;2023-02-28T02:51:52;-0.40;99.90
36132;DHT22;22185;48.738;9.324;2023-02-28T02:53:57;-0.50;99.90
36132;DHT22;22185;48.738;9.324;2023-02-28T02:56:00;-0.40;99.90
36132;DHT22;22185;48.738;9.324;2023-02-28T02:58:04;-0.40;99.90
36132;DHT22;22185;48.738;9.324;2023-02-28T03:00:06;-0.40;99.90
36132;DHT22;22185;48.738;9.324;2023-02-28T03:02:12;-0.40;99.90
36132;DHT22;22185;48.738;9.324;2023-02-28T03:04:19;-0.50;99.90
36132;DHT22;22185;48.738;9.324;2023-02-28T03:06:21;-0.50;99.90
36132;DHT22;22185;48.738;9.324;2023-02-28T03:08:23;-0.40;99.90
36132;DHT22;22185;48.738;9.324;2023-02-28T03:10:33;-0.50;99.90
36132;DHT22;22185;48.738;9.324;2023-02-28T03:12:44;-0.40;99.90
36132;DHT22;22185;48.738;9.324;2023-02-28T03:21:22;-0.50;99.90
36132;DHT22;22185;48.738;9.324;2023-02-28T03:23:35;-0.40;99.90
36132;DHT22;22185;48.738;9.324;2023-02-28T03:29:55;-0.30;99.90
36132;DHT22;22185;48.738;9.324;2023-02-28T03:32:03;-0.40;99.90
36132;DHT22;22185;48.738;9.324;2023-02-28T03:34:14;-0.40;99.90
36132;DHT22;22185;48.738;9.324;2023-02-28T03:36:18;-0.40;99.90
36132;DHT22;22185;48.738;9.324;2023-02-28T03:40:23;-0.30;99.90
36132;DHT22;22185;48.738;9.324;2023-02-28T03:42:27;-0.30;99.90
36132;DHT22;22185;48.738;9.324;2023-02-28T03:44:34;-0.40;99.90
36132;DHT22;22185;48.738;9.324;2023-02-28T03:46:37;-0.30;99.90
36132;DHT22;22185;48.738;9.324;2023-02-28T03:48:44;-0.30;99.90
36132;DHT22;22185;48.738;9.324;2023-02-28T03:50:48;-0.30;99.90
36132;DHT22;22185;48.738;9.324;2023-02-28T03:52:56;-0.30;99.90
36132;DHT22;22185;48.738;9.324;2023-02-28T03:55:03;-0.30;99.90
36132;DHT22;22185;48.738;9.324;2023-02-28T03:59:15;-0.40;99.90
36132;DHT22;22185;48.738;9.324;2023-02-28T04:01:23;-0.30;99.90
36132;DHT22;22185;48.738;9.324;2023-02-28T04:03:29;-0.30;99.90
36132;DHT22;22185;48.738;9.324;2023-02-28T04:05:30;-0.20;99.90
36132;DHT22;22185;48.738;9.324;2023-02-28T04:07:32;-0.30;99.90
36132;DHT22;22185;48.738;9.324;2023-02-28T04:09:37;-0.30;99.90
36132;DHT22;22185;48.738;9.324;2023-02-28T04:11:40;-0.20;99.90
36132;DHT22;22185;48.738;9.324;2023-02-28T04:13:41;-0.20;99.90
36132;DHT22;22185;48.738;9.324;2023-02-28T04:15:47;-0.20;99.90
36132;DHT22;22185;48.738;9.324;2023-02-28T04:17:48;-0.30;99.90
36132;DHT22;22185;48.738;9.324;2023-02-28T04:19:50;-0.10;99.90
36132;DHT22;22185;48.738;9.324;2023-02-28T04:21:52;-0.10;99.90
36132;DHT22;22185;48.738;9.324;2023-02-28T04:23:54;-0.20;99.90
36132;DHT22;22185;48.738;9.324;2023-02-28T04:25:56;-0.20;99.90
36132;DHT22;22185;48.738;9.324;2023-02-28T04:27:57;-0.20;99.90
36132;DHT22;22185;48.738;9.324;2023-02-28T04:29:59;-0.20;99.90
36132;DHT22;22185;48.738;9.324;2023-02-28T04:32:01;-0.20;99.90
36132;DHT22;22185;48.738;9.324;2023-02-28T04:34:03;-0.30;99.90
36132;DHT22;22185;48.738;9.324;2023-02-28T04:36:06;-0.30;99.90
36132;DHT22;22185;48.738;9.324;2023-02-28T04:38:08;-0.20;99.90
36132;DHT22;22185;48.738;9.324;2023-02-28T04:40:10;-0.20;99.90
36132;DHT22;22185;48.738;9.324;2023-02-28T04:42:12;-0.20;99.90
36132;DHT22;22185;48.738;9.324;2023-02-28T04:44:14;-0.20;99.90
36132;DHT22;22185;48.738;9.324;2023-02-28T04:46:16;-0.20;99.90
36132;DHT22;22185;48.738;9.324;2023-02-28T04:48:19;-0.20;99.90
36132;DHT22;22185;48.738;9.324;2023-02-28T04:50:22;-0.20;99.90
36132;DHT22;22185;48.738;9.324;2023-02-28T04:52:24;-0.10;99.90
36132;DHT22;22185;48.738;9.324;2023-02-28T04:54:26;-0.20;99.90
36132;DHT22;22185;48.738;9.324;2023-02-28T04:56:27;-0.20;99.90
36132;DHT22;22185;48.738;9.324;2023-02-28T04:58:29;-0.20;99.90
36132;DHT22;22185;48.738;9.324;2023-02-28T05:00:31;-0.20;99.90
36132;DHT22;22185;48.738;9.324;2023-02-28T05:02:34;-0.10;99.90
36132;DHT22;22185;48.738;9.324;2023-02-28T05:04:36;-0.10;99.90
36132;DHT22;22185;48.738;9.324;2023-02-28T05:06:38;-0.10;99.90
36132;DHT22;22185;48.738;9.324;2023-02-28T05:08:39;0.00;99.90
36132;DHT22;22185;48.738;9.324;2023-02-28T05:10:41;-0.10;99.90
36132;DHT22;22185;48.738;9.324;2023-02-28T05:12:42;0.00;99.90
36132;DHT22;22185;48.738;9.324;2023-02-28T05:14:44;0.10;99.90
36132;DHT22;22185;48.738;9.324;2023-02-28T05:16:45;0.00;99.90
36132;DHT22;22185;48.738;9.324;2023-02-28T05:18:47;0.00;99.90
36132;DHT22;22185;48.738;9.324;2023-02-28T05:20:49;-0.10;99.90
36132;DHT22;22185;48.738;9.324;2023-02-28T05:22:50;-0.10;99.90
36132;DHT22;22185;48.738;9.324;2023-02-28T05:24:54;-0.10;99.90
36132;DHT22;22185;48.738;9.324;2023-02-28T05:26:55;0.10;99.90
36132;DHT22;22185;48.738;9.324;2023-02-28T05:28:57;0.10;99.90
36132;DHT22;22185;48.738;9.324;2023-02-28T05:30:59;0.10;99.90
36132;DHT22;22185;48.738;9.324;2023-02-28T05:33:00;0.00;99.90
36132;DHT22;22185;48.738;9.324;2023-02-28T05:35:02;0.00;99.90
36132;DHT22;22185;48.738;9.324;2023-02-28T05:37:04;0.10;99.90
36132;DHT22;22185;48.738;9.324;2023-02-28T05:39:06;0.10;99.90
36132;DHT22;22185;48.738;9.324;2023-02-28T05:41:09;0.10;99.90
36132;DHT22;22185;48.738;9.324;2023-02-28T05:43:11;0.10;99.90
36132;DHT22;22185;48.738;9.324;2023-02-28T05:45:13;0.10;99.90
36132;DHT22;22185;48.738;9.324;2023-02-28T05:47:16;0.10;99.90
36132;DHT22;22185;48.738;9.324;2023-02-28T05:49:18;0.10;99.90
36132;DHT22;22185;48.738;9.324;2023-02-28T05:51:19;0.20;99.90
36132;DHT22;22185;48.738;9.324;2023-02-28T05:53:21;0.10;99.90
36132;DHT22;22185;48.738;9.324;2023-02-28T05:55:23;0.10;99.90
36132;DHT22;22185;48.738;9.324;2023-02-28T05:57:25;0.10;99.90
36132;DHT22;22185;48.738;9.324;2023-02-28T05:59:26;0.10;99.90
36132;DHT22;22185;48.738;9.324;2023-02-28T06:01:44;0.20;99.90
36132;DHT22;22185;48.738;9.324;2023-02-28T06:03:49;0.20;99.90
36132;DHT22;22185;48.738;9.324;2023-02-28T06:05:51;0.30;99.90
36132;DHT22;22185;48.738;9.324;2023-02-28T06:07:53;0.20;99.90
36132;DHT22;22185;48.738;9.324;2023-02-28T06:09:54;0.30;99.90
36132;DHT22;22185;48.738;9.324;2023-02-28T06:11:59;0.30;99.90
36132;DHT22;22185;48.738;9.324;2023-02-28T06:14:01;0.20;99.90
36132;DHT22;22185;48.738;9.324;2023-02-28T06:16:03;0.30;99.90
36132;DHT22;22185;48.738;9.324;2023-02-28T06:18:05;0.20;99.90
36132;DHT22;22185;48.738;9.324;2023-02-28T06:20:07;0.10;99.90
36132;DHT22;22185;48.738;9.324;2023-02-28T06:22:09;0.20;99.90
36132;DHT22;22185;48.738;9.324;2023-02-28T06:24:11;0.20;99.90
36132;DHT22;22185;48.738;9.324;2023-02-28T06:26:13;0.20;99.90
36132;DHT22;22185;48.738;9.324;2023-02-28T06:28:14;0.20;99.90
36132;DHT22;22185;48.738;9.324;2023-02-28T06:30:16;0.30;99.90
36132;DHT22;22185;48.738;9.324;2023-02-28T06:32:18;0.40;99.90
36132;DHT22;22185;48.738;9.324;2023-02-28T06:34:20;0.40;99.90
36132;DHT22;22185;48.738;9.324;2023-02-28T06:36:21;0.50;99.90
36132;DHT22;22185;48.738;9.324;2023-02-28T06:38:23;0.40;99.90
36132;DHT22;22185;48.738;9.324;2023-02-28T06:40:25;0.40;99.90
36132;DHT22;22185;48.738;9.324;2023-02-28T06:42:26;0.50;99.90
36132;DHT22;22185;48.738;9.324;2023-02-28T06:44:30;0.50;99.90
36132;DHT22;22185;48.738;9.324;2023-02-28T06:46:36;0.50;99.90
36132;DHT22;22185;48.738;9.324;2023-02-28T06:48:39;0.40;99.90
36132;DHT22;22185;48.738;9.324;2023-02-28T06:50:41;0.50;99.90
36132;DHT22;22185;48.738;9.324;2023-02-28T06:52:43;0.50;99.90
36132;DHT22;22185;48.738;9.324;2023-02-28T06:54:44;0.70;99.90
36132;DHT22;22185;48.738;9.324;2023-02-28T06:56:46;0.70;99.90
36132;DHT22;22185;48.738;9.324;2023-02-28T06:58:48;0.70;99.90
36132;DHT22;22185;48.738;9.324;2023-02-28T07:00:51;0.60;99.90
36132;DHT22;22185;48.738;9.324;2023-02-28T07:02:53;0.60;99.90
36132;DHT22;22185;48.738;9.324;2023-02-28T07:04:56;0.60;99.90
36132;DHT22;22185;48.738;9.324;2023-02-28T07:06:58;0.60;99.90
36132;DHT22;22185;48.738;9.324;2023-02-28T07:08:59;0.60;99.90
36132;DHT22;22185;48.738;9.324;2023-02-28T07:11:01;0.50;99.90
36132;DHT22;22185;48.738;9.324;2023-02-28T07:13:03;0.60;99.90
36132;DHT22;22185;48.738;9.324;2023-02-28T07:15:05;0.60;99.90
36132;DHT22;22185;48.738;9.324;2023-02-28T07:17:07;0.60;99.90
36132;DHT22;22185;48.738;9.324;2023-02-28T07:19:09;0.50;99.90
36132;DHT22;22185;48.738;9.324;2023-02-28T07:21:11;0.50;99.90
36132;DHT22;22185;48.738;9.324;2023-02-28T07:23:12;0.50;99.90
36132;DHT22;22185;48.738;9.324;2023-02-28T07:25:14;0.50;99.90
36132;DHT22;22185;48.738;9.324;2023-02-28T07:27:16;0.60;99.90
36132;DHT22;22185;48.738;9.324;2023-02-28T07:29:25;0.70;99.90
36132;DHT22;22185;48.738;9.324;2023-02-28T07:31:26;0.70;99.90
36132;DHT22;22185;48.738;9.324;2023-02-28T07:33:29;0.60;99.90
36132;DHT22;22185;48.738;9.324;2023-02-28T07:35:30;0.70;99.90
36132;DHT22;22185;48.738;9.324;2023-02-28T07:37:32;0.90;99.90
36132;DHT22;22185;48.738;9.324;2023-02-28T07:39:37;0.90;99.90
36132;DHT22;22185;48.738;9.324;2023-02-28T07:41:39;0.90;99.90
36132;DHT22;22185;48.738;9.324;2023-02-28T07:43:44;0.80;99.90
36132;DHT22;22185;48.738;9.324;2023-02-28T07:45:46;0.90;99.90
36132;DHT22;22185;48.738;9.324;2023-02-28T07:47:48;0.90;99.90
36132;DHT22;22185;48.738;9.324;2023-02-28T07:49:50;0.90;99.90
36132;DHT22;22185;48.738;9.324;2023-02-28T07:51:51;0.90;99.90
36132;DHT22;22185;48.738;9.324;2023-02-28T07:53:53;0.80;99.90
36132;DHT22;22185;48.738;9.324;2023-02-28T07:55:58;0.90;99.90
36132;DHT22;22185;48.738;9.324;2023-02-28T07:58:00;1.00;99.90
36132;DHT22;22185;48.738;9.324;2023-02-28T08:00:06;0.90;99.90
36132;DHT22;22185;48.738;9.324;2023-02-28T08:02:14;0.90;99.90
36132;DHT22;22185;48.738;9.324;2023-02-28T08:04:17;0.90;99.90
36132;DHT22;22185;48.738;9.324;2023-02-28T08:06:20;1.00;99.90
36132;DHT22;22185;48.738;9.324;2023-02-28T08:08:22;1.00;99.90
36132;DHT22;22185;48.738;9.324;2023-02-28T08:10:23;1.10;99.90
36132;DHT22;22185;48.738;9.324;2023-02-28T08:12:25;1.00;99.90
36132;DHT22;22185;48.738;9.324;2023-02-28T08:14:27;1.00;99.90
36132;DHT22;22185;48.738;9.324;2023-02-28T08:16:29;1.10;99.90
36132;DHT22;22185;48.738;9.324;2023-02-28T08:18:31;1.10;99.90
36132;DHT22;22185;48.738;9.324;2023-02-28T08:20:33;1.10;99.90
36132;DHT22;22185;48.738;9.324;2023-02-28T08:22:35;1.10;99.90
36132;DHT22;22185;48.738;9.324;2023-02-28T08:24:36;1.20;99.90
36132;DHT22;22185;48.738;9.324;2023-02-28T08:26:38;1.20;99.90
36132;DHT22;22185;48.738;9.324;2023-02-28T08:28:40;1.20;99.90
36132;DHT22;22185;48.738;9.324;2023-02-28T08:30:42;1.20;99.90
36132;DHT22;22185;48.738;9.324;2023-02-28T08:32:43;1.30;99.90
36132;DHT22;22185;48.738;9.324;2023-02-28T08:34:45;1.30;99.90
36132;DHT22;22185;48.738;9.324;2023-02-28T08:36:48;1.30;99.90
36132;DHT22;22185;48.738;9.324;2023-02-28T08:38:50;1.30;99.90
36132;DHT22;22185;48.738;9.324;2023-02-28T08:40:58;1.40;99.90
36132;DHT22;22185;48.738;9.324;2023-02-28T08:43:00;1.40;99.90
36132;DHT22;22185;48.738;9.324;2023-02-28T08:45:02;1.30;99.90
36132;DHT22;22185;48.738;9.324;2023-02-28T08:47:04;1.40;99.90
36132;DHT22;22185;48.738;9.324;2023-02-28T08:49:06;1.40;99.90
36132;DHT22;22185;48.738;9.324;2023-02-28T08:51:10;1.40;99.90
36132;DHT22;22185;48.738;9.324;2023-02-28T08:53:12;1.40;99.90
36132;DHT22;22185;48.738;9.324;2023-02-28T08:55:13;1.50;99.90
36132;DHT22;22185;48.738;9.324;2023-02-28T08:57:15;1.50;99.90
36132;DHT22;22185;48.738;9.324;2023-02-28T08:59:17;1.40;99.90
36132;DHT22;22185;48.738;9.324;2023-02-28T09:01:20;1.50;99.90
36132;DHT22;22185;48.738;9.324;2023-02-28T09:03:23;1.50;99.90
36132;DHT22;22185;48.738;9.324;2023-02-28T09:05:25;1.60;99.90
36132;DHT22;22185;48.738;9.324;2023-02-28T09:07:27;1.60;99.90
36132;DHT22;22185;48.738;9.324;2023-02-28T09:09:29;1.50;99.90
36132;DHT22;22185;48.738;9.324;2023-02-28T09:11:31;1.60;99.90
36132;DHT22;22185;48.738;9.324;2023-02-28T09:13:33;1.60;99.90
36132;DHT22;22185;48.738;9.324;2023-02-28T09:15:36;1.80;99.90
36132;DHT22;22185;48.738;9.324;2023-02-28T09:17:38;1.80;99.90
36132;DHT22;22185;48.738;9.324;2023-02-28T09:19:39;2.00;99.90
36132;DHT22;22185;48.738;9.324;2023-02-28T09:21:41;1.80;99.90
36132;DHT22;22185;48.738;9.324;2023-02-28T09:23:43;1.70;99.90
36132;DHT22;22185;48.738;9.324;2023-02-28T09:25:49;1.90;99.90
36132;DHT22;22185;48.738;9.324;2023-02-28T09:27:51;1.90;99.90
36132;DHT22;22185;48.738;9.324;2023-02-28T09:29:53;1.90;99.90
36132;DHT22;22185;48.738;9.324;2023-02-28T09:31:54;2.00;99.90
36132;DHT22;22185;48.738;9.324;2023-02-28T09:33:58;2.00;99.90
36132;DHT22;22185;48.738;9.324;2023-02-28T09:36:00;1.90;99.90
36132;DHT22;22185;48.738;9.324;2023-02-28T09:38:03;1.90;99.90
36132;DHT22;22185;48.738;9.324;2023-02-28T09:40:05;1.90;99.90
36132;DHT22;22185;48.738;9.324;2023-02-28T09:42:11;2.00;99.90
36132;DHT22;22185;48.738;9.324;2023-02-28T09:44:18;2.10;99.90
36132;DHT22;22185;48.738;9.324;2023-02-28T09:48:33;2.30;99.90
36132;DHT22;22185;48.738;9.324;2023-02-28T09:50:50;2.20;99.90
36132;DHT22;22185;48.738;9.324;2023-02-28T09:52:53;2.30;99.90
36132;DHT22;22185;48.738;9.324;2023-02-28T09:54:55;2.40;99.90
36132;DHT22;22185;48.738;9.324;2023-02-28T10:03:35;2.40;99.90
36132;DHT22;22185;48.738;9.324;2023-02-28T10:05:49;2.60;99.90
36132;DHT22;22185;48.738;9.324;2023-02-28T10:08:03;2.80;99.90
36132;DHT22;22185;48.738;9.324;2023-02-28T10:12:16;2.60;99.90
36132;DHT22;22185;48.738;9.324;2023-02-28T10:14:18;2.60;99.90
36132;DHT22;22185;48.738;9.324;2023-02-28T10:18:43;3.00;99.90
36132;DHT22;22185;48.738;9.324;2023-02-28T10:20:47;3.10;99.90
36132;DHT22;22185;48.738;9.324;2023-02-28T10:24:53;3.10;99.90
36132;DHT22;22185;48.738;9.324;2023-02-28T10:26:56;3.30;99.90
36132;DHT22;22185;48.738;9.324;2023-02-28T10:29:00;3.50;99.90
36132;DHT22;22185;48.738;9.324;2023-02-28T10:31:02;3.60;99.90
36132;DHT22;22185;48.738;9.324;2023-02-28T10:33:04;3.70;99.90
36132;DHT22;22185;48.738;9.324;2023-02-28T10:37:11;3.90;99.90
36132;DHT22;22185;48.738;9.324;2023-02-28T10:41:33;4.20;99.90
36132;DHT22;22185;48.738;9.324;2023-02-28T10:43:38;4.10;99.90
36132;DHT22;22185;48.738;9.324;2023-02-28T10:45:53;4.20;99.90
36132;DHT22;22185;48.738;9.324;2023-02-28T10:48:01;4.30;99.90
36132;DHT22;22185;48.738;9.324;2023-02-28T10:50:02;4.50;99.90
36132;DHT22;22185;48.738;9.324;2023-02-28T10:52:04;4.80;99.90
36132;DHT22;22185;48.738;9.324;2023-02-28T10:54:15;4.80;99.90
36132;DHT22;22185;48.738;9.324;2023-02-28T10:56:19;5.00;99.90
36132;DHT22;22185;48.738;9.324;2023-02-28T10:58:23;5.00;99.90
36132;DHT22;22185;48.738;9.324;2023-02-28T11:00:25;5.00;99.90
36132;DHT22;22185;48.738;9.324;2023-02-28T11:04:35;4.50;99.90
36132;DHT22;22185;48.738;9.324;2023-02-28T11:06:38;4.50;99.90
36132;DHT22;22185;48.738;9.324;2023-02-28T11:08:44;4.80;99.90
36132;DHT22;22185;48.738;9.324;2023-02-28T11:10:47;4.80;99.90
36132;DHT22;22185;48.738;9.324;2023-02-28T11:12:49;5.00;99.90
36132;DHT22;22185;48.738;9.324;2023-02-28T11:14:58;4.90;99.90
36132;DHT22;22185;48.738;9.324;2023-02-28T11:17:24;4.90;99.90
36132;DHT22;22185;48.738;9.324;2023-02-28T11:19:27;5.10;99.90
36132;DHT22;22185;48.738;9.324;2023-02-28T11:21:31;5.10;99.90
36132;DHT22;22185;48.738;9.324;2023-02-28T11:23:35;5.30;99.90
36132;DHT22;22185;48.738;9.324;2023-02-28T11:25:38;5.50;99.90
36132;DHT22;22185;48.738;9.324;2023-02-28T11:27:44;6.00;99.90
36132;DHT22;22185;48.738;9.324;2023-02-28T11:29:48;6.50;99.90
36132;DHT22;22185;48.738;9.324;2023-02-28T11:34:22;6.60;99.90
36132;DHT22;22185;48.738;9.324;2023-02-28T11:36:25;6.80;99.90
36132;DHT22;22185;48.738;9.324;2023-02-28T11:38:27;7.10;99.90
36132;DHT22;22185;48.738;9.324;2023-02-28T11:42:56;7.60;99.90
36132;DHT22;22185;48.738;9.324;2023-02-28T11:45:11;8.10;99.90
36132;DHT22;22185;48.738;9.324;2023-02-28T11:49:25;7.40;99.90
36132;DHT22;22185;48.738;9.324;2023-02-28T11:51:47;7.60;99.90
36132;DHT22;22185;48.738;9.324;2023-02-28T11:58:27;6.90;99.90
36132;DHT22;22185;48.738;9.324;2023-02-28T12:05:19;6.80;99.90
36132;DHT22;22185;48.738;9.324;2023-02-28T12:09:44;7.20;99.90
36132;DHT22;22185;48.738;9.324;2023-02-28T12:14:03;7.90;99.90
36132;DHT22;22185;48.738;9.324;2023-02-28T12:16:17;7.90;99.90
36132;DHT22;22185;48.738;9.324;2023-02-28T12:18:44;8.10;99.90
36132;DHT22;22185;48.738;9.324;2023-02-28T12:27:46;9.40;99.90
36132;DHT22;22185;48.738;9.324;2023-02-28T12:32:03;9.50;99.90
36132;DHT22;22185;48.738;9.324;2023-02-28T12:34:09;10.00;99.90
36132;DHT22;22185;48.738;9.324;2023-02-28T12:36:14;10.60;99.90
36132;DHT22;22185;48.738;9.324;2023-02-28T12:38:24;10.60;99.90
36132;DHT22;22185;48.738;9.324;2023-02-28T12:40:34;10.30;99.90
36132;DHT22;22185;48.738;9.324;2023-02-28T12:42:58;11.30;99.90
36132;DHT22;22185;48.738;9.324;2023-02-28T12:45:02;10.80;99.40
36132;DHT22;22185;48.738;9.324;2023-02-28T12:47:05;12.30;99.90
36132;DHT22;22185;48.738;9.324;2023-02-28T12:49:12;13.70;95.80
36132;DHT22;22185;48.738;9.324;2023-02-28T12:51:15;13.10;93.40
36132;DHT22;22185;48.738;9.324;2023-02-28T12:59:45;12.60;92.80
36132;DHT22;22185;48.738;9.324;2023-02-28T13:08:43;14.50;83.80
36132;DHT22;22185;48.738;9.324;2023-02-28T13:10:50;14.90;86.90
36132;DHT22;22185;48.738;9.324;2023-02-28T13:13:01;15.20;81.50
36132;DHT22;22185;48.738;9.324;2023-02-28T13:15:08;15.90;80.50
36132;DHT22;22185;48.738;9.324;2023-02-28T13:17:18;15.50;76.60
36132;DHT22;22185;48.738;9.324;2023-02-28T13:19:21;14.30;82.60
36132;DHT22;22185;48.738;9.324;2023-02-28T13:21:26;14.20;82.60
36132;DHT22;22185;48.738;9.324;2023-02-28T13:25:52;16.30;78.00
36132;DHT22;22185;48.738;9.324;2023-02-28T13:27:55;14.80;76.10
36132;DHT22;22185;48.738;9.324;2023-02-28T13:30:58;13.90;82.40
36132;DHT22;22185;48.738;9.324;2023-02-28T13:34:28;14.70;80.80
36132;DHT22;22185;48.738;9.324;2023-02-28T13:36:30;14.70;78.40
36132;DHT22;22185;48.738;9.324;2023-02-28T13:38:42;13.70;76.60
36132;DHT22;22185;48.738;9.324;2023-02-28T13:40:45;14.70;76.20
36132;DHT22;22185;48.738;9.324;2023-02-28T13:42:47;15.30;80.00
36132;DHT22;22185;48.738;9.324;2023-02-28T13:45:18;15.20;79.50
36132;DHT22;22185;48.738;9.324;2023-02-28T13:47:19;15.30;77.00
36132;DHT22;22185;48.738;9.324;2023-02-28T13:51:40;15.10;75.50
36132;DHT22;22185;48.738;9.324;2023-02-28T13:54:03;13.60;75.60
36132;DHT22;22185;48.738;9.324;2023-02-28T13:56:26;13.80;80.10
36132;DHT22;22185;48.738;9.324;2023-02-28T14:05:19;14.30;79.50
36132;DHT22;22185;48.738;9.324;2023-02-28T14:07:32;15.30;76.50
36132;DHT22;22185;48.738;9.324;2023-02-28T14:09:38;15.40;72.40
36132;DHT22;22185;48.738;9.324;2023-02-28T14:11:41;14.80;76.10
36132;DHT22;22185;48.738;9.324;2023-02-28T14:13:44;15.90;75.60
36132;DHT22;22185;48.738;9.324;2023-02-28T14:16:06;14.50;70.70
36132;DHT22;22185;48.738;9.324;2023-02-28T14:18:16;13.80;75.10
36132;DHT22;22185;48.738;9.324;2023-02-28T14:20:19;14.40;74.00
36132;DHT22;22185;48.738;9.324;2023-02-28T14:23:25;15.60;75.20
36132;DHT22;22185;48.738;9.324;2023-02-28T14:25:15;16.20;75.00
36132;DHT22;22185;48.738;9.324;2023-02-28T14:32:01;16.30;74.30
36132;DHT22;22185;48.738;9.324;2023-02-28T14:34:17;16.00;70.90
36132;DHT22;22185;48.738;9.324;2023-02-28T14:36:32;15.90;70.60
36132;DHT22;22185;48.738;9.324;2023-02-28T14:38:36;15.90;73.50
36132;DHT22;22185;48.738;9.324;2023-02-28T14:40:39;14.10;74.60
36132;DHT22;22185;48.738;9.324;2023-02-28T14:42:45;14.70;74.00
36132;DHT22;22185;48.738;9.324;2023-02-28T14:44:53;15.70;77.20
36132;DHT22;22185;48.738;9.324;2023-02-28T14:46:56;15.20;72.70
36132;DHT22;22185;48.738;9.324;2023-02-28T14:48:58;15.10;70.90
36132;DHT22;22185;48.738;9.324;2023-02-28T14:51:01;12.10;75.50
36132;DHT22;22185;48.738;9.324;2023-02-28T14:53:02;13.30;78.70
36132;DHT22;22185;48.738;9.324;2023-02-28T14:55:06;14.20;75.40
36132;DHT22;22185;48.738;9.324;2023-02-28T14:57:29;14.30;77.70
36132;DHT22;22185;48.738;9.324;2023-02-28T14:59:32;14.10;73.60
36132;DHT22;22185;48.738;9.324;2023-02-28T15:01:34;13.10;76.20
36132;DHT22;22185;48.738;9.324;2023-02-28T15:03:36;13.20;76.70
36132;DHT22;22185;48.738;9.324;2023-02-28T15:05:39;13.00;77.20